sensor_id;sensor_type;location;lat;lon;timestamp;temperature;humidity
44427;DHT22;30133;47.866;-4.222;2022-08-19T00:01:57;25.80;52.20
44427;DHT22;30133;47.866;-4.222;2022-08-19T00:04:28;25.80;52.20
44427;DHT22;30133;47.866;-4.222;2022-08-19T00:06:58;25.80;52.20
44427;DHT22;30133;47.866;-4.222;2022-08-19T00:09:25;25.80;52.20
44427;DHT22;30133;47.866;-4.222;2022-08-19T00:11:53;25.80;52.20
44427;DHT22;30133;47.866;-4.222;2022-08-19T00:14:22;25.80;52.20
44427;DHT22;30133;47.866;-4.222;2022-08-19T00:16:51;25.80;52.20
44427;DHT22;30133;47.866;-4.222;2022-08-19T00:19:20;25.80;52.20
44427;DHT22;30133;47.866;-4.222;2022-08-19T00:21:47;25.80;52.20
44427;DHT22;30133;47.866;-4.222;2022-08-19T00:24:15;25.80;52.20
44427;DHT22;30133;47.866;-4.222;2022-08-19T00:26:48;25.80;52.20
44427;DHT22;30133;47.866;-4.222;2022-08-19T00:29:17;25.80;52.20
44427;DHT22;30133;47.866;-4.222;2022-08-19T00:31:46;25.80;52.20
44427;DHT22;30133;47.866;-4.222;2022-08-19T00:34:14;25.80;52.20
44427;DHT22;30133;47.866;-4.222;2022-08-19T00:36:41;25.80;52.20
44427;DHT22;30133;47.866;-4.222;2022-08-19T00:39:09;25.80;52.20
44427;DHT22;30133;47.866;-4.222;2022-08-19T00:41:35;25.70;52.20
44427;DHT22;30133;47.866;-4.222;2022-08-19T00:44:09;25.80;52.30
44427;DHT22;30133;47.866;-4.222;2022-08-19T00:46:43;25.70;52.20
44427;DHT22;30133;47.866;-4.222;2022-08-19T00:49:34;25.70;52.20
44427;DHT22;30133;47.866;-4.222;2022-08-19T00:52:14;25.70;52.20
44427;DHT22;30133;47.866;-4.222;2022-08-19T00:54:46;25.70;52.30
44427;DHT22;30133;47.866;-4.222;2022-08-19T00:57:16;25.70;52.30
44427;DHT22;30133;47.866;-4.222;2022-08-19T00:59:47;25.70;52.30
44427;DHT22;30133;47.866;-4.222;2022-08-19T01:02:15;25.70;52.30
44427;DHT22;30133;47.866;-4.222;2022-08-19T01:04:41;25.70;52.40
44427;DHT22;30133;47.866;-4.222;2022-08-19T01:07:07;25.70;52.40
44427;DHT22;30133;47.866;-4.222;2022-08-19T01:09:34;25.70;52.30
44427;DHT22;30133;47.866;-4.222;2022-08-19T01:12:00;25.70;52.30
44427;DHT22;30133;47.866;-4.222;2022-08-19T01:14:26;25.70;52.30
44427;DHT22;30133;47.866;-4.222;2022-08-19T01:16:53;25.70;52.30
44427;DHT22;30133;47.866;-4.222;2022-08-19T01:19:31;25.70;52.30
44427;DHT22;30133;47.866;-4.222;2022-08-19T01:24:55;25.70;52.30
44427;DHT22;30133;47.866;-4.222;2022-08-19T01:27:21;25.70;52.30
44427;DHT22;30133;47.866;-4.222;2022-08-19T01:29:47;25.70;52.30
44427;DHT22;30133;47.866;-4.222;2022-08-19T01:32:16;25.60;52.30
44427;DHT22;30133;47.866;-4.222;2022-08-19T01:34:47;25.60;52.30
44427;DHT22;30133;47.866;-4.222;2022-08-19T01:37:14;25.60;52.30
44427;DHT22;30133;47.866;-4.222;2022-08-19T01:39:41;25.70;52.30
44427;DHT22;30133;47.866;-4.222;2022-08-19T01:42:09;25.60;52.30
44427;DHT22;30133;47.866;-4.222;2022-08-19T01:44:43;25.60;52.30
44427;DHT22;30133;47.866;-4.222;2022-08-19T01:47:09;25.70;52.30
44427;DHT22;30133;47.866;-4.222;2022-08-19T01:49:39;25.60;52.30
44427;DHT22;30133;47.866;-4.222;2022-08-19T01:52:07;25.60;52.30
44427;DHT22;30133;47.866;-4.222;2022-08-19T01:54:38;25.60;52.30
44427;DHT22;30133;47.866;-4.222;2022-08-19T01:57:08;25.60;52.30
44427;DHT22;30133;47.866;-4.222;2022-08-19T01:59:41;25.60;52.90
44427;DHT22;30133;47.866;-4.222;2022-08-19T02:02:08;25.60;52.30
44427;DHT22;30133;47.866;-4.222;2022-08-19T02:04:35;25.70;52.40
44427;DHT22;30133;47.866;-4.222;2022-08-19T02:07:04;25.60;52.30
44427;DHT22;30133;47.866;-4.222;2022-08-19T02:09:33;25.60;52.30
44427;DHT22;30133;47.866;-4.222;2022-08-19T02:12:00;25.60;52.30
44427;DHT22;30133;47.866;-4.222;2022-08-19T02:14:26;25.60;52.30
44427;DHT22;30133;47.866;-4.222;2022-08-19T02:16:55;25.60;52.30
44427;DHT22;30133;47.866;-4.222;2022-08-19T02:19:26;25.60;52.40
44427;DHT22;30133;47.866;-4.222;2022-08-19T02:21:53;25.60;52.40
44427;DHT22;30133;47.866;-4.222;2022-08-19T02:24:19;25.60;52.40
44427;DHT22;30133;47.866;-4.222;2022-08-19T02:26:46;25.60;52.40
44427;DHT22;30133;47.866;-4.222;2022-08-19T02:29:12;25.60;52.40
44427;DHT22;30133;47.866;-4.222;2022-08-19T02:31:38;25.60;52.40
44427;DHT22;30133;47.866;-4.222;2022-08-19T02:34:04;25.60;52.80
44427;DHT22;30133;47.866;-4.222;2022-08-19T02:36:31;25.60;52.40
44427;DHT22;30133;47.866;-4.222;2022-08-19T02:38:58;25.60;52.40
44427;DHT22;30133;47.866;-4.222;2022-08-19T02:41:31;25.60;52.40
44427;DHT22;30133;47.866;-4.222;2022-08-19T02:43:59;25.60;52.40
44427;DHT22;30133;47.866;-4.222;2022-08-19T02:46:29;25.60;53.00
44427;DHT22;30133;47.866;-4.222;2022-08-19T02:49:05;25.60;52.40
44427;DHT22;30133;47.866;-4.222;2022-08-19T02:51:42;25.60;52.40
44427;DHT22;30133;47.866;-4.222;2022-08-19T02:54:12;25.60;52.40
44427;DHT22;30133;47.866;-4.222;2022-08-19T02:56:41;25.60;52.40
44427;DHT22;30133;47.866;-4.222;2022-08-19T02:59:08;25.60;52.40
44427;DHT22;30133;47.866;-4.222;2022-08-19T03:01:35;25.60;52.50
44427;DHT22;30133;47.866;-4.222;2022-08-19T03:04:04;25.60;52.50
44427;DHT22;30133;47.866;-4.222;2022-08-19T03:06:35;25.60;52.50
44427;DHT22;30133;47.866;-4.222;2022-08-19T03:09:04;25.50;52.40
44427;DHT22;30133;47.866;-4.222;2022-08-19T03:11:32;25.50;52.40
44427;DHT22;30133;47.866;-4.222;2022-08-19T03:13:59;25.50;52.40
44427;DHT22;30133;47.866;-4.222;2022-08-19T03:16:29;25.50;52.40
44427;DHT22;30133;47.866;-4.222;2022-08-19T03:19:03;25.50;52.50
44427;DHT22;30133;47.866;-4.222;2022-08-19T03:21:33;25.50;52.40
44427;DHT22;30133;47.866;-4.222;2022-08-19T03:24:07;25.50;52.50
44427;DHT22;30133;47.866;-4.222;2022-08-19T03:26:40;25.50;52.40
44427;DHT22;30133;47.866;-4.222;2022-08-19T03:29:11;25.50;52.40
44427;DHT22;30133;47.866;-4.222;2022-08-19T03:31:39;25.50;52.50
44427;DHT22;30133;47.866;-4.222;2022-08-19T03:34:10;25.50;52.50
44427;DHT22;30133;47.866;-4.222;2022-08-19T03:36:41;25.50;52.50
44427;DHT22;30133;47.866;-4.222;2022-08-19T03:39:10;25.50;52.50
44427;DHT22;30133;47.866;-4.222;2022-08-19T03:41:38;25.50;52.50
44427;DHT22;30133;47.866;-4.222;2022-08-19T03:44:07;25.50;52.50
44427;DHT22;30133;47.866;-4.222;2022-08-19T03:46:34;25.50;52.50
44427;DHT22;30133;47.866;-4.222;2022-08-19T03:49:03;25.50;53.10
44427;DHT22;30133;47.866;-4.222;2022-08-19T03:51:39;25.60;52.60
44427;DHT22;30133;47.866;-4.222;2022-08-19T03:54:08;25.50;52.50
44427;DHT22;30133;47.866;-4.222;2022-08-19T03:56:38;25.50;52.50
44427;DHT22;30133;47.866;-4.222;2022-08-19T03:59:09;25.50;52.50
44427;DHT22;30133;47.866;-4.222;2022-08-19T04:01:38;25.50;52.50
44427;DHT22;30133;47.866;-4.222;2022-08-19T04:04:05;25.50;52.50
44427;DHT22;30133;47.866;-4.222;2022-08-19T04:06:33;25.50;52.50
44427;DHT22;30133;47.866;-4.222;2022-08-19T04:09:08;25.50;52.50
44427;DHT22;30133;47.866;-4.222;2022-08-19T04:11:40;25.50;52.50
44427;DHT22;30133;47.866;-4.222;2022-08-19T04:14:13;25.50;52.50
44427;DHT22;30133;47.866;-4.222;2022-08-19T04:16:47;25.50;52.50
44427;DHT22;30133;47.866;-4.222;2022-08-19T04:19:15;25.50;52.50
44427;DHT22;30133;47.866;-4.222;2022-08-19T04:21:44;25.50;52.50
44427;DHT22;30133;47.866;-4.222;2022-08-19T04:24:15;25.50;52.50
44427;DHT22;30133;47.866;-4.222;2022-08-19T04:26:43;25.50;52.50
44427;DHT22;30133;47.866;-4.222;2022-08-19T04:29:15;25.50;52.50
44427;DHT22;30133;47.866;-4.222;2022-08-19T04:31:45;25.50;52.50
44427;DHT22;30133;47.866;-4.222;2022-08-19T04:34:13;25.50;52.60
44427;DHT22;30133;47.866;-4.222;2022-08-19T04:36:43;25.50;52.60
44427;DHT22;30133;47.866;-4.222;2022-08-19T04:39:18;25.50;52.60
44427;DHT22;30133;47.866;-4.222;2022-08-19T04:41:47;25.50;52.60
44427;DHT22;30133;47.866;-4.222;2022-08-19T04:44:35;25.40;52.50
44427;DHT22;30133;47.866;-4.222;2022-08-19T04:47:02;25.40;52.60
44427;DHT22;30133;47.866;-4.222;2022-08-19T04:49:31;25.50;52.60
44427;DHT22;30133;47.866;-4.222;2022-08-19T04:51:57;25.50;52.60
44427;DHT22;30133;47.866;-4.222;2022-08-19T04:54:25;25.50;52.60
44427;DHT22;30133;47.866;-4.222;2022-08-19T04:56:53;25.40;52.50
44427;DHT22;30133;47.866;-4.222;2022-08-19T04:59:20;25.40;52.50
44427;DHT22;30133;47.866;-4.222;2022-08-19T05:01:47;25.50;52.60
44427;DHT22;30133;47.866;-4.222;2022-08-19T05:04:17;25.40;52.50
44427;DHT22;30133;47.866;-4.222;2022-08-19T05:06:45;25.50;52.60
44427;DHT22;30133;47.866;-4.222;2022-08-19T05:09:14;25.50;52.60
44427;DHT22;30133;47.866;-4.222;2022-08-19T05:11:41;25.40;52.50
44427;DHT22;30133;47.866;-4.222;2022-08-19T05:14:08;25.40;52.50
44427;DHT22;30133;47.866;-4.222;2022-08-19T05:16:35;25.40;52.50
44427;DHT22;30133;47.866;-4.222;2022-08-19T05:19:01;25.40;52.60
44427;DHT22;30133;47.866;-4.222;2022-08-19T05:21:46;25.40;52.60
44427;DHT22;30133;47.866;-4.222;2022-08-19T05:24:31;25.40;52.60
44427;DHT22;30133;47.866;-4.222;2022-08-19T05:27:03;25.40;52.60
44427;DHT22;30133;47.866;-4.222;2022-08-19T05:29:32;25.40;52.60
44427;DHT22;30133;47.866;-4.222;2022-08-19T05:32:02;25.40;52.60
44427;DHT22;30133;47.866;-4.222;2022-08-19T05:34:31;25.40;52.70
44427;DHT22;30133;47.866;-4.222;2022-08-19T05:37:01;25.40;52.60
44427;DHT22;30133;47.866;-4.222;2022-08-19T05:39:29;25.40;52.60
44427;DHT22;30133;47.866;-4.222;2022-08-19T05:42:00;25.40;52.60
44427;DHT22;30133;47.866;-4.222;2022-08-19T05:44:32;25.40;52.60
44427;DHT22;30133;47.866;-4.222;2022-08-19T05:47:01;25.40;52.60
44427;DHT22;30133;47.866;-4.222;2022-08-19T05:49:31;25.40;52.60
44427;DHT22;30133;47.866;-4.222;2022-08-19T05:52:03;25.40;52.60
44427;DHT22;30133;47.866;-4.222;2022-08-19T05:54:33;25.40;52.60
44427;DHT22;30133;47.866;-4.222;2022-08-19T05:57:02;25.40;52.60
44427;DHT22;30133;47.866;-4.222;2022-08-19T05:59:28;25.40;52.60
44427;DHT22;30133;47.866;-4.222;2022-08-19T06:01:55;25.40;52.60
44427;DHT22;30133;47.866;-4.222;2022-08-19T06:04:22;25.40;52.60
44427;DHT22;30133;47.866;-4.222;2022-08-19T06:06:52;25.40;52.60
44427;DHT22;30133;47.866;-4.222;2022-08-19T06:09:20;25.40;52.60
44427;DHT22;30133;47.866;-4.222;2022-08-19T06:11:57;25.40;52.60
44427;DHT22;30133;47.866;-4.222;2022-08-19T06:14:29;25.40;52.60
44427;DHT22;30133;47.866;-4.222;2022-08-19T06:16:58;25.40;52.60
44427;DHT22;30133;47.866;-4.222;2022-08-19T06:19:30;25.40;52.60
44427;DHT22;30133;47.866;-4.222;2022-08-19T06:21:58;25.40;52.60
44427;DHT22;30133;47.866;-4.222;2022-08-19T06:24:28;25.40;52.60
44427;DHT22;30133;47.866;-4.222;2022-08-19T06:26:57;25.40;52.60
44427;DHT22;30133;47.866;-4.222;2022-08-19T06:29:27;25.40;52.70
44427;DHT22;30133;47.866;-4.222;2022-08-19T06:31:59;25.40;52.70
44427;DHT22;30133;47.866;-4.222;2022-08-19T06:34:30;25.40;52.70
44427;DHT22;30133;47.866;-4.222;2022-08-19T06:37:01;25.40;52.60
44427;DHT22;30133;47.866;-4.222;2022-08-19T06:39:31;25.40;52.70
44427;DHT22;30133;47.866;-4.222;2022-08-19T06:42:01;25.40;52.70
44427;DHT22;30133;47.866;-4.222;2022-08-19T06:44:34;25.40;52.60
44427;DHT22;30133;47.866;-4.222;2022-08-19T06:47:08;25.40;52.70
44427;DHT22;30133;47.866;-4.222;2022-08-19T06:49:36;25.40;52.70
44427;DHT22;30133;47.866;-4.222;2022-08-19T06:52:04;25.40;52.70
44427;DHT22;30133;47.866;-4.222;2022-08-19T06:54:32;25.40;52.70
44427;DHT22;30133;47.866;-4.222;2022-08-19T06:57:00;25.40;52.70
44427;DHT22;30133;47.866;-4.222;2022-08-19T06:59:31;25.40;52.70
44427;DHT22;30133;47.866;-4.222;2022-08-19T07:02:05;25.40;52.70
44427;DHT22;30133;47.866;-4.222;2022-08-19T07:04:34;25.40;52.70
44427;DHT22;30133;47.866;-4.222;2022-08-19T07:07:13;25.40;52.70
44427;DHT22;30133;47.866;-4.222;2022-08-19T07:09:43;25.40;52.70
44427;DHT22;30133;47.866;-4.222;2022-08-19T07:12:13;25.40;52.70
44427;DHT22;30133;47.866;-4.222;2022-08-19T07:14:44;25.40;52.70
44427;DHT22;30133;47.866;-4.222;2022-08-19T07:17:11;25.40;52.70
44427;DHT22;30133;47.866;-4.222;2022-08-19T07:19:38;25.40;52.70
44427;DHT22;30133;47.866;-4.222;2022-08-19T07:22:06;25.40;52.70
44427;DHT22;30133;47.866;-4.222;2022-08-19T07:24:33;25.40;52.70
44427;DHT22;30133;47.866;-4.222;2022-08-19T07:27:05;25.40;52.70
44427;DHT22;30133;47.866;-4.222;2022-08-19T07:29:37;25.40;52.70
44427;DHT22;30133;47.866;-4.222;2022-08-19T07:32:07;25.40;52.70
44427;DHT22;30133;47.866;-4.222;2022-08-19T07:34:37;25.40;52.70
44427;DHT22;30133;47.866;-4.222;2022-08-19T07:37:05;25.40;52.70
44427;DHT22;30133;47.866;-4.222;2022-08-19T07:39:35;25.40;52.70
44427;DHT22;30133;47.866;-4.222;2022-08-19T07:42:05;25.40;52.70
44427;DHT22;30133;47.866;-4.222;2022-08-19T07:44:36;25.40;52.70
44427;DHT22;30133;47.866;-4.222;2022-08-19T07:47:06;25.40;52.70
44427;DHT22;30133;47.866;-4.222;2022-08-19T07:49:32;25.40;52.80
44427;DHT22;30133;47.866;-4.222;2022-08-19T07:52:06;25.40;52.80
44427;DHT22;30133;47.866;-4.222;2022-08-19T07:54:36;25.40;52.80
44427;DHT22;30133;47.866;-4.222;2022-08-19T07:57:07;25.40;52.90
44427;DHT22;30133;47.866;-4.222;2022-08-19T07:59:34;25.40;53.50
44427;DHT22;30133;47.866;-4.222;2022-08-19T08:02:04;25.40;53.30
44427;DHT22;30133;47.866;-4.222;2022-08-19T08:04:33;25.40;53.50
44427;DHT22;30133;47.866;-4.222;2022-08-19T08:07:18;25.40;53.50
44427;DHT22;30133;47.866;-4.222;2022-08-19T08:10:06;25.40;53.50
44427;DHT22;30133;47.866;-4.222;2022-08-19T08:12:37;25.40;54.00
44427;DHT22;30133;47.866;-4.222;2022-08-19T08:15:11;25.30;54.00
44427;DHT22;30133;47.866;-4.222;2022-08-19T08:17:45;25.10;54.80
44427;DHT22;30133;47.866;-4.222;2022-08-19T08:20:12;24.90;55.40
44427;DHT22;30133;47.866;-4.222;2022-08-19T08:22:44;24.80;55.90
44427;DHT22;30133;47.866;-4.222;2022-08-19T08:25:30;24.70;56.20
44427;DHT22;30133;47.866;-4.222;2022-08-19T08:27:59;24.60;56.50
44427;DHT22;30133;47.866;-4.222;2022-08-19T08:30:30;24.50;56.90
44427;DHT22;30133;47.866;-4.222;2022-08-19T08:33:04;24.40;57.00
44427;DHT22;30133;47.866;-4.222;2022-08-19T08:35:32;24.40;57.30
44427;DHT22;30133;47.866;-4.222;2022-08-19T08:37:59;24.40;57.50
44427;DHT22;30133;47.866;-4.222;2022-08-19T08:43:38;24.40;57.90
44427;DHT22;30133;47.866;-4.222;2022-08-19T08:46:13;24.30;58.00
44427;DHT22;30133;47.866;-4.222;2022-08-19T08:49:26;24.30;58.60
44427;DHT22;30133;47.866;-4.222;2022-08-19T08:52:07;24.20;58.90
44427;DHT22;30133;47.866;-4.222;2022-08-19T08:54:46;24.20;59.10
44427;DHT22;30133;47.866;-4.222;2022-08-19T08:57:59;24.30;59.50
44427;DHT22;30133;47.866;-4.222;2022-08-19T09:00:17;24.30;59.10
44427;DHT22;30133;47.866;-4.222;2022-08-19T09:02:45;24.20;59.30
44427;DHT22;30133;47.866;-4.222;2022-08-19T09:05:11;24.10;59.50
44427;DHT22;30133;47.866;-4.222;2022-08-19T09:08:05;24.10;59.80
44427;DHT22;30133;47.866;-4.222;2022-08-19T09:10:37;24.10;60.00
44427;DHT22;30133;47.866;-4.222;2022-08-19T09:15:47;24.10;60.30
44427;DHT22;30133;47.866;-4.222;2022-08-19T09:18:19;24.00;60.40
44427;DHT22;30133;47.866;-4.222;2022-08-19T09:20:46;24.00;60.70
44427;DHT22;30133;47.866;-4.222;2022-08-19T09:23:13;24.10;60.90
44427;DHT22;30133;47.866;-4.222;2022-08-19T09:25:40;24.10;60.80
44427;DHT22;30133;47.866;-4.222;2022-08-19T09:28:07;24.10;60.90
44427;DHT22;30133;47.866;-4.222;2022-08-19T09:30:39;24.10;61.00
44427;DHT22;30133;47.866;-4.222;2022-08-19T09:33:07;24.10;61.00
44427;DHT22;30133;47.866;-4.222;2022-08-19T09:35:35;24.10;61.10
44427;DHT22;30133;47.866;-4.222;2022-08-19T09:38:02;24.10;61.00
44427;DHT22;30133;47.866;-4.222;2022-08-19T09:40:30;24.10;60.90
44427;DHT22;30133;47.866;-4.222;2022-08-19T09:42:57;24.20;61.00
44427;DHT22;30133;47.866;-4.222;2022-08-19T09:45:28;24.20;61.00
44427;DHT22;30133;47.866;-4.222;2022-08-19T09:47:56;24.20;61.00
44427;DHT22;30133;47.866;-4.222;2022-08-19T09:50:23;24.10;61.00
44427;DHT22;30133;47.866;-4.222;2022-08-19T09:52:52;24.10;61.20
44427;DHT22;30133;47.866;-4.222;2022-08-19T09:55:19;24.10;61.30
44427;DHT22;30133;47.866;-4.222;2022-08-19T09:57:46;24.10;61.20
44427;DHT22;30133;47.866;-4.222;2022-08-19T10:00:12;24.20;61.20
44427;DHT22;30133;47.866;-4.222;2022-08-19T10:02:39;24.20;61.20
44427;DHT22;30133;47.866;-4.222;2022-08-19T10:05:06;24.20;61.30
44427;DHT22;30133;47.866;-4.222;2022-08-19T10:07:51;24.10;61.20
44427;DHT22;30133;47.866;-4.222;2022-08-19T10:10:18;24.10;61.30
44427;DHT22;30133;47.866;-4.222;2022-08-19T10:12:44;24.10;61.20
44427;DHT22;30133;47.866;-4.222;2022-08-19T10:15:13;24.20;60.90
44427;DHT22;30133;47.866;-4.222;2022-08-19T10:17:40;24.40;60.20
44427;DHT22;30133;47.866;-4.222;2022-08-19T10:20:06;24.60;59.60
44427;DHT22;30133;47.866;-4.222;2022-08-19T10:22:36;24.70;59.10
44427;DHT22;30133;47.866;-4.222;2022-08-19T10:25:04;24.80;58.60
44427;DHT22;30133;47.866;-4.222;2022-08-19T10:27:34;25.00;58.20
44427;DHT22;30133;47.866;-4.222;2022-08-19T10:30:00;25.10;58.00
44427;DHT22;30133;47.866;-4.222;2022-08-19T10:32:27;25.10;57.80
44427;DHT22;30133;47.866;-4.222;2022-08-19T10:34:55;25.20;57.50
44427;DHT22;30133;47.866;-4.222;2022-08-19T10:37:21;25.30;57.40
44427;DHT22;30133;47.866;-4.222;2022-08-19T10:39:48;25.30;57.20
44427;DHT22;30133;47.866;-4.222;2022-08-19T10:42:15;25.40;57.10
44427;DHT22;30133;47.866;-4.222;2022-08-19T10:44:44;25.40;56.90
44427;DHT22;30133;47.866;-4.222;2022-08-19T10:47:12;25.40;56.80
44427;DHT22;30133;47.866;-4.222;2022-08-19T10:49:38;25.40;56.70
44427;DHT22;30133;47.866;-4.222;2022-08-19T10:52:24;25.50;56.60
44427;DHT22;30133;47.866;-4.222;2022-08-19T10:55:08;25.50;56.70
44427;DHT22;30133;47.866;-4.222;2022-08-19T10:57:53;25.50;56.60
44427;DHT22;30133;47.866;-4.222;2022-08-19T11:00:21;25.50;56.60
44427;DHT22;30133;47.866;-4.222;2022-08-19T11:02:48;25.50;56.50
44427;DHT22;30133;47.866;-4.222;2022-08-19T11:05:17;25.50;56.40
44427;DHT22;30133;47.866;-4.222;2022-08-19T11:07:45;25.50;56.40
44427;DHT22;30133;47.866;-4.222;2022-08-19T11:10:13;25.50;56.30
44427;DHT22;30133;47.866;-4.222;2022-08-19T11:12:41;25.50;56.30
44427;DHT22;30133;47.866;-4.222;2022-08-19T11:15:09;25.60;56.30
44427;DHT22;30133;47.866;-4.222;2022-08-19T11:17:38;25.60;56.30
44427;DHT22;30133;47.866;-4.222;2022-08-19T11:20:10;25.60;56.20
44427;DHT22;30133;47.866;-4.222;2022-08-19T11:22:38;25.60;56.30
44427;DHT22;30133;47.866;-4.222;2022-08-19T11:25:08;25.60;56.30
44427;DHT22;30133;47.866;-4.222;2022-08-19T11:27:42;25.60;56.20
44427;DHT22;30133;47.866;-4.222;2022-08-19T11:30:12;25.60;56.10
44427;DHT22;30133;47.866;-4.222;2022-08-19T11:32:42;25.60;56.10
44427;DHT22;30133;47.866;-4.222;2022-08-19T11:35:10;25.50;56.10
44427;DHT22;30133;47.866;-4.222;2022-08-19T11:37:36;25.60;56.00
44427;DHT22;30133;47.866;-4.222;2022-08-19T11:40:07;25.60;56.00
44427;DHT22;30133;47.866;-4.222;2022-08-19T11:42:34;25.60;55.90
44427;DHT22;30133;47.866;-4.222;2022-08-19T11:45:19;25.50;55.90
44427;DHT22;30133;47.866;-4.222;2022-08-19T11:47:45;25.60;56.00
44427;DHT22;30133;47.866;-4.222;2022-08-19T11:50:13;25.60;56.00
44427;DHT22;30133;47.866;-4.222;2022-08-19T11:52:41;25.60;56.00
44427;DHT22;30133;47.866;-4.222;2022-08-19T11:55:09;25.60;56.00
44427;DHT22;30133;47.866;-4.222;2022-08-19T11:57:35;25.60;56.00
44427;DHT22;30133;47.866;-4.222;2022-08-19T12:00:02;25.50;55.90
44427;DHT22;30133;47.866;-4.222;2022-08-19T12:02:31;25.50;55.90
44427;DHT22;30133;47.866;-4.222;2022-08-19T12:04:57;25.50;55.90
44427;DHT22;30133;47.866;-4.222;2022-08-19T12:07:23;25.60;56.00
44427;DHT22;30133;47.866;-4.222;2022-08-19T12:09:50;25.60;55.90
44427;DHT22;30133;47.866;-4.222;2022-08-19T12:12:16;25.60;55.90
44427;DHT22;30133;47.866;-4.222;2022-08-19T12:14:43;25.60;56.00
44427;DHT22;30133;47.866;-4.222;2022-08-19T12:17:10;25.50;55.90
44427;DHT22;30133;47.866;-4.222;2022-08-19T12:19:37;25.60;56.00
44427;DHT22;30133;47.866;-4.222;2022-08-19T12:22:06;25.50;56.00
44427;DHT22;30133;47.866;-4.222;2022-08-19T12:24:33;25.60;56.10
44427;DHT22;30133;47.866;-4.222;2022-08-19T12:27:00;25.50;56.00
44427;DHT22;30133;47.866;-4.222;2022-08-19T12:29:27;25.50;56.00
44427;DHT22;30133;47.866;-4.222;2022-08-19T12:31:54;25.50;56.10
44427;DHT22;30133;47.866;-4.222;2022-08-19T12:34:31;25.60;56.00
44427;DHT22;30133;47.866;-4.222;2022-08-19T12:37:01;25.60;56.00
44427;DHT22;30133;47.866;-4.222;2022-08-19T12:39:28;25.50;56.00
44427;DHT22;30133;47.866;-4.222;2022-08-19T12:41:56;25.50;55.80
44427;DHT22;30133;47.866;-4.222;2022-08-19T12:44:23;25.20;56.40
44427;DHT22;30133;47.866;-4.222;2022-08-19T12:46:49;25.10;56.90
44427;DHT22;30133;47.866;-4.222;2022-08-19T12:49:15;24.90;57.30
44427;DHT22;30133;47.866;-4.222;2022-08-19T12:51:42;24.80;57.70
44427;DHT22;30133;47.866;-4.222;2022-08-19T12:54:08;24.70;58.00
44427;DHT22;30133;47.866;-4.222;2022-08-19T12:56:34;24.60;58.20
44427;DHT22;30133;47.866;-4.222;2022-08-19T12:59:02;24.60;58.40
44427;DHT22;30133;47.866;-4.222;2022-08-19T13:01:30;24.50;58.50
44427;DHT22;30133;47.866;-4.222;2022-08-19T13:03:58;24.50;58.60
44427;DHT22;30133;47.866;-4.222;2022-08-19T13:06:26;24.40;58.60
44427;DHT22;30133;47.866;-4.222;2022-08-19T13:08:53;24.40;58.70
44427;DHT22;30133;47.866;-4.222;2022-08-19T13:11:20;24.40;58.80
44427;DHT22;30133;47.866;-4.222;2022-08-19T13:13:51;24.40;58.90
44427;DHT22;30133;47.866;-4.222;2022-08-19T13:16:18;24.40;58.90
44427;DHT22;30133;47.866;-4.222;2022-08-19T13:18:46;24.40;59.00
44427;DHT22;30133;47.866;-4.222;2022-08-19T13:21:14;24.40;59.10
44427;DHT22;30133;47.866;-4.222;2022-08-19T13:23:40;24.40;59.10
44427;DHT22;30133;47.866;-4.222;2022-08-19T13:26:08;24.40;59.10
44427;DHT22;30133;47.866;-4.222;2022-08-19T13:28:35;24.50;59.20
44427;DHT22;30133;47.866;-4.222;2022-08-19T13:31:22;24.50;59.20
44427;DHT22;30133;47.866;-4.222;2022-08-19T13:34:08;24.50;59.40
44427;DHT22;30133;47.866;-4.222;2022-08-19T13:36:35;24.50;59.60
44427;DHT22;30133;47.866;-4.222;2022-08-19T13:39:03;24.60;59.40
44427;DHT22;30133;47.866;-4.222;2022-08-19T13:41:29;24.60;59.30
44427;DHT22;30133;47.866;-4.222;2022-08-19T13:43:56;24.60;59.50
44427;DHT22;30133;47.866;-4.222;2022-08-19T13:46:23;24.60;59.60
44427;DHT22;30133;47.866;-4.222;2022-08-19T13:48:49;24.60;59.70
44427;DHT22;30133;47.866;-4.222;2022-08-19T13:51:17;24.60;59.70
44427;DHT22;30133;47.866;-4.222;2022-08-19T13:53:45;24.60;59.80
44427;DHT22;30133;47.866;-4.222;2022-08-19T13:56:15;24.70;60.00
44427;DHT22;30133;47.866;-4.222;2022-08-19T13:58:42;24.70;59.90
44427;DHT22;30133;47.866;-4.222;2022-08-19T14:01:09;24.80;59.70
44427;DHT22;30133;47.866;-4.222;2022-08-19T14:03:36;24.70;59.70
44427;DHT22;30133;47.866;-4.222;2022-08-19T14:06:02;24.80;59.80
44427;DHT22;30133;47.866;-4.222;2022-08-19T14:08:29;24.80;59.90
44427;DHT22;30133;47.866;-4.222;2022-08-19T14:10:56;24.80;60.30
44427;DHT22;30133;47.866;-4.222;2022-08-19T14:13:23;24.80;60.90
44427;DHT22;30133;47.866;-4.222;2022-08-19T14:15:50;24.90;60.40
44427;DHT22;30133;47.866;-4.222;2022-08-19T14:18:18;24.90;60.80
44427;DHT22;30133;47.866;-4.222;2022-08-19T14:20:45;24.90;60.70
44427;DHT22;30133;47.866;-4.222;2022-08-19T14:23:11;24.90;61.40
44427;DHT22;30133;47.866;-4.222;2022-08-19T14:25:40;25.00;61.20
44427;DHT22;30133;47.866;-4.222;2022-08-19T14:28:06;25.10;60.60
44427;DHT22;30133;47.866;-4.222;2022-08-19T14:30:34;25.30;59.90
44427;DHT22;30133;47.866;-4.222;2022-08-19T14:33:04;25.50;59.20
44427;DHT22;30133;47.866;-4.222;2022-08-19T14:35:33;25.60;58.60
44427;DHT22;30133;47.866;-4.222;2022-08-19T14:38:03;25.70;58.40
44427;DHT22;30133;47.866;-4.222;2022-08-19T14:40:32;25.80;58.30
44427;DHT22;30133;47.866;-4.222;2022-08-19T14:43:02;26.00;58.40
44427;DHT22;30133;47.866;-4.222;2022-08-19T14:45:32;26.10;57.90
44427;DHT22;30133;47.866;-4.222;2022-08-19T14:48:01;26.10;57.60
44427;DHT22;30133;47.866;-4.222;2022-08-19T14:50:27;26.20;57.50
44427;DHT22;30133;47.866;-4.222;2022-08-19T14:53:06;26.30;57.60
44427;DHT22;30133;47.866;-4.222;2022-08-19T14:55:34;26.40;57.30
44427;DHT22;30133;47.866;-4.222;2022-08-19T14:58:01;26.40;57.00
44427;DHT22;30133;47.866;-4.222;2022-08-19T15:00:27;26.40;56.90
44427;DHT22;30133;47.866;-4.222;2022-08-19T15:02:53;26.40;56.90
44427;DHT22;30133;47.866;-4.222;2022-08-19T15:05:20;26.10;57.50
44427;DHT22;30133;47.866;-4.222;2022-08-19T15:07:47;25.80;58.10
44427;DHT22;30133;47.866;-4.222;2022-08-19T15:10:14;25.60;58.60
44427;DHT22;30133;47.866;-4.222;2022-08-19T15:12:41;25.50;59.20
44427;DHT22;30133;47.866;-4.222;2022-08-19T15:15:11;25.40;59.50
44427;DHT22;30133;47.866;-4.222;2022-08-19T15:17:40;25.40;59.80
44427;DHT22;30133;47.866;-4.222;2022-08-19T15:20:07;25.40;60.00
44427;DHT22;30133;47.866;-4.222;2022-08-19T15:22:35;25.40;59.90
44427;DHT22;30133;47.866;-4.222;2022-08-19T15:25:03;25.40;60.10
44427;DHT22;30133;47.866;-4.222;2022-08-19T15:27:30;25.40;60.00
44427;DHT22;30133;47.866;-4.222;2022-08-19T15:29:56;25.40;60.30
44427;DHT22;30133;47.866;-4.222;2022-08-19T15:32:22;25.40;60.90
44427;DHT22;30133;47.866;-4.222;2022-08-19T15:34:51;25.40;61.00
44427;DHT22;30133;47.866;-4.222;2022-08-19T15:37:18;25.40;61.30
44427;DHT22;30133;47.866;-4.222;2022-08-19T15:39:48;25.40;61.70